Latest Coastal Weather Observations for Karratha

IDW60701

Issued at 6:02 am WST Saturday 28 May 2016 (issued every 10 minutes, with the page automatically refreshed every 10 minutes)

About coastal observations | Map of coastal stations | Coastal observations for WA | Marine services | Other Formats
Station Details ID: 004083 Name: KARRATHA AERO Lat: -20.71 Lon: 116.77 Height: 5.3 m
Data from the previous 72 hours. | See also: Recent months at Karratha
Date/Time
WST
Temp

°C
Wind Pressure Rain
since 9am
mm
Weather Cloud Vis
km
Sea
Height
m
Swell
Dir
 
Speed
knots
Gust
knots
hPa Trend Height
m
Period
s
Dir
28/06:00am 22.6 SW 3 4 1014.0 - 0.0 - - 10 - - - -
28/05:30am 22.9 CALM 0 5 1013.9 - 0.0 - - 10 - - - -
28/05:00am 23.1 CALM 0 0 1013.9 - 0.0 - - 10 - - - -
28/04:30am 23.5 SW 3 4 1013.9 - 0.0 - Partly cloudy 10 - - - -
28/04:23am 23.5 SSW 3 4 1014.0 - 0.0 - Partly cloudy 10 - - - -
28/04:00am 23.7 SW 4 6 1014.1 - 0.0 - Partly cloudy 10 - - - -
28/03:54am 23.7 SW 5 6 1014.1 - 0.0 - Partly cloudy 10 - - - -
28/03:30am 23.9 SW 5 6 1014.1 - 0.0 - - 10 - - - -
28/03:00am 24.2 SW 7 9 1014.2 - 0.0 - Mostly clear 10 - - - -
28/02:30am 24.3 SW 8 11 1014.3 - 0.0 - Partly cloudy 10 - - - -
28/02:11am 24.3 SW 6 7 1014.4 - 0.0 - Partly cloudy 10 - - - -
28/02:00am 24.5 SW 6 7 1014.5 - 0.0 - Partly cloudy 10 - - - -
28/01:54am 24.3 SW 6 7 1014.5 - 0.0 - Partly cloudy 10 - - - -
28/01:30am 24.0 WSW 4 5 1014.7 - 0.0 - - 10 - - - -
28/01:00am 24.1 SW 5 8 1014.8 - 0.0 - Partly cloudy 10 - - - -
28/12:30am 24.0 SW 6 7 1015.1 - 0.0 - - 10 - - - -
28/12:00am 24.1 SW 5 6 1015.3 - 0.0 - - 10 - - - -
 
Date/Time
WST
Temp

°C
Wind Pressure Rain
since 9am
mm
Weather Cloud Vis
km
Sea
Height
m
Swell
Dir
 
Speed
knots
Gust
knots
hPa Trend Height
m
Period
s
Dir
27/11:30pm 24.2 SW 5 7 1015.2 - 0.0 - - 10 - - - -
27/11:00pm 24.2 SW 6 6 1015.2 - 0.0 - - 10 - - - -
27/10:30pm 24.6 SW 4 5 1015.4 - 0.0 - - 10 - - - -
27/10:00pm 24.9 SW 6 8 1015.4 - 0.0 - - 10 - - - -
27/09:30pm 26.0 WNW 6 9 1015.3 - 0.0 - - 10 - - - -
27/09:00pm 26.1 NW 8 9 1015.0 - 0.0 - - 10 - - - -
27/08:30pm 26.2 NNW 9 12 1014.9 - 0.0 - - 10 - - - -
27/08:00pm 26.3 NNW 10 13 1014.6 - 0.0 - - 10 - - - -
27/07:30pm 26.4 NNW 10 13 1014.3 - 0.0 - - 10 - - - -
27/07:00pm 26.7 NNW 10 13 1014.1 - 0.0 - - 10 - - - -
27/06:30pm 26.9 NNW 9 12 1014.0 - 0.0 - - 10 - - - -
27/06:00pm 27.3 N 7 10 1013.8 - 0.0 - - 10 - - - -
27/05:30pm 28.2 NNE 7 9 1013.5 - 0.0 - - 10 - - - -
27/05:00pm 27.9 NNE 10 12 1013.2 - 0.0 - - 10 - - - -
27/04:30pm 28.3 NNE 11 13 1013.1 - 0.0 - - 10 - - - -
27/04:00pm 28.0 NNE 13 16 1013.0 - 0.0 - - 10 - - - -
27/03:30pm 28.4 NNE 13 17 1012.9 - 0.0 - - 10 - - - -
27/03:00pm 28.5 NNE 14 17 1012.8 - 0.0 - - 10 - - - -
27/02:30pm 29.1 NE 14 18 1012.8 - 0.0 - - 10 - - - -
27/02:00pm 29.0 NE 16 20 1013.0 - 0.0 - - 10 - - - -
27/01:30pm 29.0 NE 16 21 1013.4 - 0.0 - - 10 - - - -
27/01:00pm 29.3 NE 16 19 1013.7 - 0.0 - - 10 - - - -
27/12:30pm 29.4 NE 16 20 1014.0 - 0.0 - - 10 - - - -
27/12:00pm 30.4 NE 15 19 1014.5 - 0.0 - - 10 - - - -
27/11:30am 30.2 NE 14 17 1015.0 - 0.0 - - 10 - - - -
27/11:00am 30.5 NE 13 17 1015.2 - 0.0 - - 10 - - - -
27/10:30am 30.7 ENE 13 17 1015.6 - 0.0 - - 10 - - - -
27/10:00am 29.8 E 13 17 1015.9 - 0.0 - - 10 - - - -
27/09:30am 28.7 ENE 15 17 1015.9 - 0.0 - - 10 - - - -
27/09:00am 27.5 ENE 14 18 1015.7 - 0.0 - - 10 - - - -
27/08:30am 25.8 ENE 11 15 1015.7 - 0.0 - - 10 - - - -
27/08:00am 24.7 ENE 10 13 1015.4 - 0.0 - - 10 - - - -
27/07:30am 23.7 E 7 8 1015.1 - 0.0 - - 10 - - - -
27/07:00am 22.4 E 7 8 1014.8 - 0.0 - - 10 - - - -
27/06:30am 21.1 ENE 6 7 1014.4 - 0.0 - - 10 - - - -
27/06:00am 21.2 ESE 4 5 1014.2 - 0.0 - - 10 - - - -
27/05:30am 21.2 SSE 4 4 1014.0 - 0.0 - - 10 - - - -
27/05:00am 21.8 CALM 0 0 1013.8 - 0.0 - - 10 - - - -
27/04:30am 21.9 CALM 0 0 1013.4 - 0.0 - - 10 - - - -
27/04:00am 21.4 S 5 7 1013.4 - 0.0 - - 10 - - - -
27/03:30am 22.0 SSW 5 6 1013.2 - 0.0 - - 10 - - - -
27/03:00am 23.0 WSW 6 7 1013.0 - 0.0 - - 10 - - - -
27/02:30am 23.2 SW 5 7 1013.3 - 0.0 - - 10 - - - -
27/02:00am 24.1 WSW 6 7 1013.5 - 0.0 - - 10 - - - -
27/01:30am 24.6 W 6 7 1013.6 - 0.0 - - 10 - - - -
27/01:00am 24.8 WSW 7 7 1013.9 - 0.0 - - 10 - - - -
27/12:30am 25.2 W 9 10 1014.1 - 0.0 - - 10 - - - -
27/12:00am 25.7 W 9 11 1014.0 - 0.0 - - 10 - - - -
 
Date/Time
WST
Temp

°C
Wind Pressure Rain
since 9am
mm
Weather Cloud Vis
km
Sea
Height
m
Swell
Dir
 
Speed
knots
Gust
knots
hPa Trend Height
m
Period
s
Dir
26/11:30pm 26.1 WNW 9 11 1014.1 - 0.0 - - 10 - - - -
26/11:00pm 26.4 WNW 9 10 1014.3 - 0.0 - - 10 - - - -
26/10:30pm 26.0 NW 9 12 1014.3 - 0.0 - - 10 - - - -
26/10:00pm 26.2 NW 10 13 1014.3 - 0.0 - - 10 - - - -
26/09:30pm 26.3 NW 11 14 1014.3 - 0.0 - - 10 - - - -
26/09:00pm 26.4 NW 10 13 1014.3 - 0.0 - - 10 - - - -
26/08:30pm 26.5 NW 10 14 1014.2 - 0.0 - - 10 - - - -
26/08:00pm 26.6 NW 10 15 1014.2 - 0.0 - - 10 - - - -
26/07:30pm 26.7 NW 10 14 1014.0 - 0.0 - - 10 - - - -
26/07:00pm 27.0 NW 10 13 1013.6 - 0.0 - - 10 - - - -
26/06:30pm 26.9 NW 10 13 1013.4 - 0.0 - - 10 - - - -
26/06:00pm 27.2 WNW 11 14 1013.3 - 0.0 - - 10 - - - -
26/05:30pm 27.5 NW 11 14 1013.0 - 0.0 - - 10 - - - -
26/05:00pm 28.4 NW 11 14 1012.7 - 0.0 - - 10 - - - -
26/04:30pm 29.0 WNW 12 15 1012.5 - 0.0 - - 10 - - - -
26/04:00pm 29.4 WNW 13 16 1012.4 - 0.0 - - 10 - - - -
26/03:30pm 29.3 WNW 14 17 1012.4 - 0.0 - - 10 - - - -
26/03:00pm 30.6 WNW 13 17 1012.3 - 0.0 - - 10 - - - -
26/02:30pm 31.2 NW 9 12 1012.3 - 0.0 - - 10 - - - -
26/02:00pm 31.3 NNW 9 11 1012.6 - 0.0 - - 10 - - - -
26/01:30pm 32.0 WNW 10 13 1012.8 - 0.0 - - 10 - - - -
26/01:00pm 32.2 WNW 10 13 1013.2 - 0.0 - - 10 - - - -
26/12:30pm 32.2 W 7 11 1013.5 - 0.0 - - 10 - - - -
26/12:00pm 30.8 W 6 9 1014.1 - 0.0 - - 10 - - - -
26/11:30am 31.1 SW 7 13 1014.5 - 0.0 - - 10 - - - -
26/11:00am 29.5 SSW 7 11 1015.1 - 0.0 - - 10 - - - -
26/10:30am 29.0 SSW 5 10 1015.5 - 0.0 - - 10 - - - -
26/10:00am 27.5 SSW 6 10 1015.9 - 0.0 - - 10 - - - -
26/09:30am 26.4 SSW 7 11 1015.9 - 0.0 - - 10 - - - -
26/09:00am 24.9 SW 8 10 1015.7 - 0.0 - - 10 - - - -
26/08:30am 24.0 WSW 9 10 1015.4 - 0.0 - - 10 - - - -
26/08:00am 23.4 WSW 9 11 1015.0 - 0.0 - - 10 - - - -
26/07:30am 22.8 WSW 9 11 1014.6 - 0.0 - - 10 - - - -
26/07:00am 22.3 WSW 8 9 1014.3 - 0.0 - - 10 - - - -
26/06:30am 22.3 WSW 9 10 1014.2 - 0.0 - - 10 - - - -
26/06:00am 22.0 SW 7 9 1014.2 - 0.0 - - 10 - - - -
26/05:30am 22.3 SW 7 9 1013.8 - 0.0 - - 10 - - - -
26/05:00am 22.6 WSW 8 10 1013.7 - 0.0 - - 10 - - - -
26/04:30am 22.3 WSW 8 9 1013.6 - 0.0 - - 10 - - - -
26/04:00am 21.7 SW 5 6 1013.4 - 0.0 - - 10 - - - -
26/03:30am 21.8 SW 5 8 1013.6 - 0.0 - - 10 - - - -
26/03:00am 22.1 SW 8 9 1013.7 - 0.0 - - 10 - - - -
26/02:30am 22.2 SW 7 8 1013.7 - 0.0 - - 10 - - - -
26/02:00am 22.3 SW 8 9 1013.9 - 0.0 - - 10 - - - -
26/01:30am 22.5 WSW 9 11 1014.0 - 0.0 - - 10 - - - -
26/01:00am 22.7 WSW 8 10 1014.0 - 0.0 - - 10 - - - -
26/12:30am 23.1 WSW 8 10 1013.9 - 0.0 - - 10 - - - -
26/12:00am 23.2 WSW 8 9 1013.9 - 0.0 - - 10 - - - -
 
Date/Time
WST
Temp

°C
Wind Pressure Rain
since 9am
mm
Weather Cloud Vis
km
Sea
Height
m
Swell
Dir
 
Speed
knots
Gust
knots
hPa Trend Height
m
Period
s
Dir
25/11:30pm 23.3 WSW 8 10 1013.9 - 0.0 - - 10 - - - -
25/11:00pm 23.4 WSW 8 11 1013.9 - 0.0 - - 10 - - - -
25/10:30pm 23.7 WSW 11 13 1014.0 - 0.0 - - 10 - - - -
25/10:00pm 23.9 WSW 10 14 1014.1 - 0.0 - - 10 - - - -
25/09:30pm 24.3 W 12 14 1014.2 - 0.0 - - 10 - - - -
25/09:00pm 24.4 W 11 14 1014.2 - 0.0 - - 10 - - - -
25/08:30pm 24.6 W 13 16 1014.1 - 0.0 - - 10 - - - -
25/08:00pm 24.6 WNW 12 15 1013.9 - 0.0 - - 10 - - - -
25/07:30pm 24.7 WNW 12 16 1013.6 - 0.0 - - 10 - - - -
25/07:00pm 24.8 WNW 12 15 1013.2 - 0.0 - - 10 - - - -
25/06:30pm 24.9 WNW 13 16 1013.0 - 0.0 - - 10 - - - -
25/06:00pm 24.9 WNW 13 16 1012.6 - 0.0 - - 10 - - - -
25/05:30pm 25.5 WNW 13 16 1012.4 - 0.0 - - 10 - - - -
25/05:00pm 26.3 W 13 17 1012.4 - 0.0 - - 10 - - - -
25/04:30pm 26.8 W 15 17 1012.2 - 0.0 - - 10 - - - -
25/04:00pm 27.4 W 14 17 1012.0 - 0.0 - - 10 - - - -
25/03:30pm 27.7 WNW 11 15 1011.9 - 0.0 - - 10 - - - -
25/03:00pm 27.9 W 13 16 1011.7 - 0.0 - - 10 - - - -
25/02:30pm 28.6 WNW 10 13 1011.8 - 0.0 - - 10 - - - -
25/02:00pm 28.3 WNW 9 14 1012.1 - 0.0 - - 10 - - - -
25/01:30pm 28.3 W 10 14 1012.2 - 0.0 - - 10 - - - -
25/01:00pm 28.0 W 8 11 1012.5 - 0.0 - - 10 - - - -
25/12:30pm 28.3 W 9 11 1012.8 - 0.0 - - 10 - - - -
25/12:00pm 27.8 W 8 11 1013.1 - 0.0 - - 10 - - - -
25/11:30am 27.7 W 9 11 1013.4 - 0.0 - - 10 - - - -
25/11:00am 27.0 W 7 10 1013.8 - 0.0 - - 10 - - - -
25/10:30am 26.3 W 6 9 1014.0 - 0.0 - - 10 - - - -
25/10:00am 26.1 W 5 6 1014.4 - 0.0 - - 10 - - - -
25/09:30am 25.6 SW 4 6 1014.3 - 0.0 - - 10 - - - -
25/09:00am 24.6 SSW 5 7 1014.3 - 0.0 - - 10 - - - -
25/08:30am 23.9 S 7 9 1014.3 - 0.0 - - 10 - - - -
25/08:00am 22.8 SSW 7 8 1014.2 - 0.0 - - 10 - - - -
25/07:30am 21.0 S 5 6 1013.8 - 0.0 - - 10 - - - -
25/07:00am 20.2 S 5 7 1013.7 - 0.0 - - 10 - - - -
25/06:30am 20.9 SSW 7 7 1013.4 - 0.0 - - 10 - - - -

Other Formats:

Comma delimited format used in spreadsheet applications
http://www.bom.gov.au/fwo/IDW60701/IDW60701.95307.axf

JavaScript Object Notation format (JSON) in row-major order
http://www.bom.gov.au/fwo/IDW60701/IDW60701.95307.json